sensor_id;sensor_type;location;lat;lon;timestamp;P1;durP1;ratioP1;P2;durP2;ratioP2
21416;SDS011;10869;52.238;10.716;2023-05-29T03:02:02;11.43;;;4.63;;
21416;SDS011;10869;52.238;10.716;2023-05-29T03:07:50;9.27;;;4.83;;
21416;SDS011;10869;52.238;10.716;2023-05-29T03:10:16;12.83;;;4.53;;
21416;SDS011;10869;52.238;10.716;2023-05-29T03:12:45;12.30;;;5.63;;
21416;SDS011;10869;52.238;10.716;2023-05-29T03:15:11;8.60;;;4.50;;
21416;SDS011;10869;52.238;10.716;2023-05-29T03:17:37;10.63;;;4.93;;
21416;SDS011;10869;52.238;10.716;2023-05-29T03:20:03;10.93;;;5.43;;
21416;SDS011;10869;52.238;10.716;2023-05-29T03:22:33;10.63;;;5.10;;
21416;SDS011;10869;52.238;10.716;2023-05-29T03:25:01;12.73;;;5.00;;
21416;SDS011;10869;52.238;10.716;2023-05-29T03:27:30;11.07;;;5.00;;
21416;SDS011;10869;52.238;10.716;2023-05-29T03:29:56;10.90;;;5.77;;
21416;SDS011;10869;52.238;10.716;2023-05-29T03:32:23;12.43;;;5.40;;
21416;SDS011;10869;52.238;10.716;2023-05-29T03:35:01;9.63;;;4.80;;
21416;SDS011;10869;52.238;10.716;2023-05-29T03:37:31;11.17;;;5.13;;
21416;SDS011;10869;52.238;10.716;2023-05-29T03:40:09;11.37;;;4.13;;
21416;SDS011;10869;52.238;10.716;2023-05-29T03:43:16;9.60;;;4.23;;
21416;SDS011;10869;52.238;10.716;2023-05-29T03:45:41;8.93;;;4.20;;
21416;SDS011;10869;52.238;10.716;2023-05-29T03:48:07;10.70;;;4.30;;
21416;SDS011;10869;52.238;10.716;2023-05-29T03:50:33;8.73;;;3.77;;
21416;SDS011;10869;52.238;10.716;2023-05-29T03:52:58;12.10;;;3.57;;
21416;SDS011;10869;52.238;10.716;2023-05-29T03:55:25;9.47;;;3.87;;
21416;SDS011;10869;52.238;10.716;2023-05-29T03:57:52;10.90;;;4.07;;
21416;SDS011;10869;52.238;10.716;2023-05-29T04:00:17;10.90;;;3.70;;
21416;SDS011;10869;52.238;10.716;2023-05-29T04:02:43;16.67;;;3.67;;
21416;SDS011;10869;52.238;10.716;2023-05-29T04:05:09;11.17;;;4.00;;
21416;SDS011;10869;52.238;10.716;2023-05-29T04:07:38;12.63;;;4.10;;
21416;SDS011;10869;52.238;10.716;2023-05-29T04:10:04;12.70;;;3.93;;
21416;SDS011;10869;52.238;10.716;2023-05-29T04:12:31;11.77;;;4.27;;
21416;SDS011;10869;52.238;10.716;2023-05-29T04:14:57;11.57;;;4.47;;
21416;SDS011;10869;52.238;10.716;2023-05-29T04:17:24;17.47;;;4.40;;
21416;SDS011;10869;52.238;10.716;2023-05-29T04:19:50;13.60;;;3.73;;
21416;SDS011;10869;52.238;10.716;2023-05-29T04:22:15;12.40;;;3.77;;
21416;SDS011;10869;52.238;10.716;2023-05-29T04:24:41;11.83;;;3.80;;
21416;SDS011;10869;52.238;10.716;2023-05-29T04:27:10;15.83;;;3.50;;
21416;SDS011;10869;52.238;10.716;2023-05-29T04:29:38;10.50;;;3.70;;
21416;SDS011;10869;52.238;10.716;2023-05-29T04:32:08;16.00;;;3.80;;
21416;SDS011;10869;52.238;10.716;2023-05-29T04:34:36;11.30;;;4.07;;
21416;SDS011;10869;52.238;10.716;2023-05-29T04:37:04;11.97;;;3.73;;
21416;SDS011;10869;52.238;10.716;2023-05-29T04:39:30;11.87;;;4.07;;
21416;SDS011;10869;52.238;10.716;2023-05-29T04:41:56;12.20;;;4.33;;
21416;SDS011;10869;52.238;10.716;2023-05-29T04:44:27;13.70;;;3.90;;
21416;SDS011;10869;52.238;10.716;2023-05-29T04:46:54;19.00;;;4.77;;
21416;SDS011;10869;52.238;10.716;2023-05-29T04:49:21;13.63;;;4.03;;
21416;SDS011;10869;52.238;10.716;2023-05-29T04:51:47;14.73;;;3.80;;
21416;SDS011;10869;52.238;10.716;2023-05-29T04:54:13;10.83;;;3.93;;
21416;SDS011;10869;52.238;10.716;2023-05-29T04:56:39;13.57;;;3.57;;
21416;SDS011;10869;52.238;10.716;2023-05-29T04:59:10;10.47;;;4.00;;
21416;SDS011;10869;52.238;10.716;2023-05-29T05:01:36;12.07;;;4.10;;
21416;SDS011;10869;52.238;10.716;2023-05-29T05:04:02;12.30;;;3.80;;
21416;SDS011;10869;52.238;10.716;2023-05-29T05:06:27;13.30;;;3.80;;
21416;SDS011;10869;52.238;10.716;2023-05-29T05:08:53;12.70;;;3.50;;
21416;SDS011;10869;52.238;10.716;2023-05-29T05:11:20;12.10;;;3.70;;
21416;SDS011;10869;52.238;10.716;2023-05-29T05:13:47;20.37;;;4.20;;
21416;SDS011;10869;52.238;10.716;2023-05-29T05:16:12;10.80;;;3.50;;
21416;SDS011;10869;52.238;10.716;2023-05-29T05:18:38;10.57;;;3.77;;
21416;SDS011;10869;52.238;10.716;2023-05-29T05:21:04;14.90;;;4.07;;
21416;SDS011;10869;52.238;10.716;2023-05-29T05:23:30;14.77;;;3.90;;
21416;SDS011;10869;52.238;10.716;2023-05-29T05:25:56;11.83;;;4.17;;
21416;SDS011;10869;52.238;10.716;2023-05-29T05:28:22;15.97;;;4.77;;
21416;SDS011;10869;52.238;10.716;2023-05-29T05:30:48;13.10;;;4.00;;
21416;SDS011;10869;52.238;10.716;2023-05-29T05:33:14;11.73;;;4.27;;
21416;SDS011;10869;52.238;10.716;2023-05-29T05:35:40;15.90;;;4.30;;
21416;SDS011;10869;52.238;10.716;2023-05-29T05:38:06;12.47;;;3.70;;
21416;SDS011;10869;52.238;10.716;2023-05-29T05:40:33;11.50;;;4.27;;
21416;SDS011;10869;52.238;10.716;2023-05-29T05:42:58;11.33;;;4.63;;
21416;SDS011;10869;52.238;10.716;2023-05-29T05:45:24;13.23;;;4.00;;
21416;SDS011;10869;52.238;10.716;2023-05-29T05:47:50;11.40;;;3.47;;
21416;SDS011;10869;52.238;10.716;2023-05-29T05:50:16;14.17;;;4.00;;
21416;SDS011;10869;52.238;10.716;2023-05-29T05:52:43;11.17;;;3.60;;
21416;SDS011;10869;52.238;10.716;2023-05-29T05:55:08;9.17;;;3.27;;
21416;SDS011;10869;52.238;10.716;2023-05-29T05:57:35;11.10;;;3.60;;
21416;SDS011;10869;52.238;10.716;2023-05-29T06:00:04;16.73;;;4.10;;
21416;SDS011;10869;52.238;10.716;2023-05-29T06:02:37;13.33;;;4.93;;
21416;SDS011;10869;52.238;10.716;2023-05-29T06:08:28;10.23;;;3.70;;
21416;SDS011;10869;52.238;10.716;2023-05-29T06:14:17;16.80;;;5.07;;
21416;SDS011;10869;52.238;10.716;2023-05-29T06:16:43;13.97;;;4.47;;
21416;SDS011;10869;52.238;10.716;2023-05-29T06:22:31;15.27;;;4.47;;
21416;SDS011;10869;52.238;10.716;2023-05-29T06:24:59;10.90;;;4.17;;
21416;SDS011;10869;52.238;10.716;2023-05-29T06:30:49;15.53;;;4.53;;
21416;SDS011;10869;52.238;10.716;2023-05-29T06:36:37;10.53;;;3.93;;
21416;SDS011;10869;52.238;10.716;2023-05-29T06:39:03;12.57;;;4.70;;
21416;SDS011;10869;52.238;10.716;2023-05-29T06:44:51;15.07;;;4.77;;
21416;SDS011;10869;52.238;10.716;2023-05-29T06:50:39;12.33;;;4.53;;
21416;SDS011;10869;52.238;10.716;2023-05-29T06:53:05;13.20;;;4.33;;
21416;SDS011;10869;52.238;10.716;2023-05-29T06:55:31;14.07;;;4.47;;
21416;SDS011;10869;52.238;10.716;2023-05-29T06:57:56;15.33;;;5.10;;
21416;SDS011;10869;52.238;10.716;2023-05-29T07:00:22;16.27;;;4.60;;
21416;SDS011;10869;52.238;10.716;2023-05-29T07:02:48;11.37;;;3.90;;
21416;SDS011;10869;52.238;10.716;2023-05-29T07:05:13;12.50;;;4.40;;
21416;SDS011;10869;52.238;10.716;2023-05-29T07:07:39;12.93;;;4.40;;
21416;SDS011;10869;52.238;10.716;2023-05-29T07:16:35;12.03;;;4.73;;
21416;SDS011;10869;52.238;10.716;2023-05-29T07:19:01;15.90;;;4.03;;
21416;SDS011;10869;52.238;10.716;2023-05-29T07:21:27;12.67;;;4.63;;
21416;SDS011;10869;52.238;10.716;2023-05-29T07:23:52;12.93;;;4.33;;
21416;SDS011;10869;52.238;10.716;2023-05-29T07:26:21;12.03;;;4.20;;
21416;SDS011;10869;52.238;10.716;2023-05-29T07:28:51;10.47;;;4.43;;
21416;SDS011;10869;52.238;10.716;2023-05-29T07:31:18;13.50;;;4.77;;
21416;SDS011;10869;52.238;10.716;2023-05-29T07:33:44;19.47;;;4.73;;
21416;SDS011;10869;52.238;10.716;2023-05-29T07:36:10;15.20;;;5.00;;
21416;SDS011;10869;52.238;10.716;2023-05-29T07:38:36;16.73;;;4.63;;
21416;SDS011;10869;52.238;10.716;2023-05-29T07:41:02;12.00;;;3.80;;
21416;SDS011;10869;52.238;10.716;2023-05-29T07:43:27;12.10;;;3.63;;
21416;SDS011;10869;52.238;10.716;2023-05-29T07:45:53;12.30;;;3.63;;
21416;SDS011;10869;52.238;10.716;2023-05-29T07:48:19;11.07;;;4.43;;
21416;SDS011;10869;52.238;10.716;2023-05-29T07:56:43;15.23;;;3.67;;
21416;SDS011;10869;52.238;10.716;2023-05-29T07:59:09;11.43;;;3.17;;
21416;SDS011;10869;52.238;10.716;2023-05-29T08:01:36;17.40;;;4.40;;
21416;SDS011;10869;52.238;10.716;2023-05-29T08:04:04;14.40;;;4.53;;
21416;SDS011;10869;52.238;10.716;2023-05-29T08:06:30;12.90;;;3.13;;
21416;SDS011;10869;52.238;10.716;2023-05-29T08:08:59;16.50;;;3.43;;
21416;SDS011;10869;52.238;10.716;2023-05-29T08:11:24;11.90;;;3.17;;
21416;SDS011;10869;52.238;10.716;2023-05-29T08:13:50;11.50;;;3.57;;
21416;SDS011;10869;52.238;10.716;2023-05-29T08:16:18;16.43;;;4.40;;
21416;SDS011;10869;52.238;10.716;2023-05-29T08:18:43;13.97;;;3.87;;
21416;SDS011;10869;52.238;10.716;2023-05-29T08:28:56;11.63;;;4.33;;
21416;SDS011;10869;52.238;10.716;2023-05-29T08:36:47;16.30;;;4.67;;
21416;SDS011;10869;52.238;10.716;2023-05-29T08:39:25;11.83;;;3.17;;
21416;SDS011;10869;52.238;10.716;2023-05-29T08:44:25;11.17;;;3.43;;
21416;SDS011;10869;52.238;10.716;2023-05-29T08:49:41;14.57;;;3.80;;
21416;SDS011;10869;52.238;10.716;2023-05-29T08:52:19;16.80;;;4.20;;
21416;SDS011;10869;52.238;10.716;2023-05-29T08:54:47;12.53;;;3.97;;
21416;SDS011;10869;52.238;10.716;2023-05-29T08:57:13;12.83;;;3.50;;
21416;SDS011;10869;52.238;10.716;2023-05-29T09:03:00;14.20;;;3.67;;
21416;SDS011;10869;52.238;10.716;2023-05-29T09:05:26;9.50;;;3.30;;
21416;SDS011;10869;52.238;10.716;2023-05-29T09:11:14;14.07;;;4.17;;
21416;SDS011;10869;52.238;10.716;2023-05-29T09:13:40;9.23;;;3.00;;
21416;SDS011;10869;52.238;10.716;2023-05-29T09:19:28;11.93;;;3.40;;
21416;SDS011;10869;52.238;10.716;2023-05-29T09:22:02;12.73;;;3.07;;
21416;SDS011;10869;52.238;10.716;2023-05-29T09:24:33;11.93;;;2.90;;
21416;SDS011;10869;52.238;10.716;2023-05-29T09:27:01;10.63;;;3.20;;
21416;SDS011;10869;52.238;10.716;2023-05-29T09:29:32;13.10;;;3.30;;
21416;SDS011;10869;52.238;10.716;2023-05-29T09:31:59;14.80;;;3.73;;
21416;SDS011;10869;52.238;10.716;2023-05-29T09:34:25;12.30;;;3.37;;
21416;SDS011;10869;52.238;10.716;2023-05-29T09:36:52;11.13;;;3.30;;
21416;SDS011;10869;52.238;10.716;2023-05-29T09:49:35;10.50;;;2.93;;
21416;SDS011;10869;52.238;10.716;2023-05-29T09:52:06;10.27;;;3.03;;
21416;SDS011;10869;52.238;10.716;2023-05-29T09:54:34;9.43;;;2.90;;
21416;SDS011;10869;52.238;10.716;2023-05-29T09:57:01;8.77;;;2.60;;
21416;SDS011;10869;52.238;10.716;2023-05-29T09:59:30;11.70;;;2.87;;
21416;SDS011;10869;52.238;10.716;2023-05-29T10:13:06;8.77;;;2.90;;
21416;SDS011;10869;52.238;10.716;2023-05-29T10:15:34;12.63;;;3.10;;
21416;SDS011;10869;52.238;10.716;2023-05-29T10:18:16;9.70;;;2.80;;
21416;SDS011;10869;52.238;10.716;2023-05-29T10:21:02;11.23;;;2.70;;
21416;SDS011;10869;52.238;10.716;2023-05-29T10:23:29;9.47;;;2.57;;
21416;SDS011;10869;52.238;10.716;2023-05-29T10:25:57;11.07;;;2.77;;
21416;SDS011;10869;52.238;10.716;2023-05-29T10:28:39;9.53;;;2.67;;
21416;SDS011;10869;52.238;10.716;2023-05-29T10:31:28;8.07;;;2.87;;
21416;SDS011;10869;52.238;10.716;2023-05-29T10:37:04;10.37;;;2.60;;
21416;SDS011;10869;52.238;10.716;2023-05-29T10:39:41;8.63;;;2.77;;
21416;SDS011;10869;52.238;10.716;2023-05-29T10:42:40;10.13;;;2.40;;
21416;SDS011;10869;52.238;10.716;2023-05-29T10:45:07;7.10;;;2.37;;
21416;SDS011;10869;52.238;10.716;2023-05-29T10:50:46;8.50;;;2.50;;
21416;SDS011;10869;52.238;10.716;2023-05-29T10:53:16;8.27;;;2.60;;
21416;SDS011;10869;52.238;10.716;2023-05-29T10:55:51;9.47;;;2.47;;
21416;SDS011;10869;52.238;10.716;2023-05-29T10:58:31;5.23;;;1.93;;
21416;SDS011;10869;52.238;10.716;2023-05-29T11:00:57;7.27;;;2.30;;
21416;SDS011;10869;52.238;10.716;2023-05-29T11:03:24;7.90;;;2.87;;
21416;SDS011;10869;52.238;10.716;2023-05-29T11:24:08;6.83;;;2.30;;
21416;SDS011;10869;52.238;10.716;2023-05-29T11:26:44;9.63;;;2.70;;
21416;SDS011;10869;52.238;10.716;2023-05-29T11:29:11;7.60;;;2.33;;
21416;SDS011;10869;52.238;10.716;2023-05-29T11:31:38;9.77;;;2.63;;
21416;SDS011;10869;52.238;10.716;2023-05-29T11:34:05;7.40;;;2.47;;
21416;SDS011;10869;52.238;10.716;2023-05-29T11:36:35;8.17;;;2.63;;
21416;SDS011;10869;52.238;10.716;2023-05-29T11:39:03;16.17;;;3.17;;
21416;SDS011;10869;52.238;10.716;2023-05-29T11:41:29;6.77;;;2.43;;
21416;SDS011;10869;52.238;10.716;2023-05-29T11:43:58;9.03;;;2.43;;
21416;SDS011;10869;52.238;10.716;2023-05-29T11:46:26;11.93;;;2.70;;
21416;SDS011;10869;52.238;10.716;2023-05-29T11:48:53;9.33;;;2.60;;
21416;SDS011;10869;52.238;10.716;2023-05-29T11:51:18;9.30;;;2.70;;
21416;SDS011;10869;52.238;10.716;2023-05-29T11:53:46;9.73;;;3.03;;
21416;SDS011;10869;52.238;10.716;2023-05-29T11:56:13;7.90;;;2.60;;
21416;SDS011;10869;52.238;10.716;2023-05-29T11:58:39;11.27;;;2.77;;
21416;SDS011;10869;52.238;10.716;2023-05-29T12:01:06;7.80;;;3.10;;
21416;SDS011;10869;52.238;10.716;2023-05-29T12:03:39;9.70;;;3.03;;
21416;SDS011;10869;52.238;10.716;2023-05-29T12:06:09;8.20;;;2.50;;
21416;SDS011;10869;52.238;10.716;2023-05-29T12:16:24;7.87;;;2.60;;
21416;SDS011;10869;52.238;10.716;2023-05-29T12:18:51;8.73;;;2.70;;
21416;SDS011;10869;52.238;10.716;2023-05-29T12:21:17;9.20;;;3.00;;
21416;SDS011;10869;52.238;10.716;2023-05-29T12:23:45;10.43;;;3.37;;
21416;SDS011;10869;52.238;10.716;2023-05-29T12:26:18;10.40;;;2.87;;
21416;SDS011;10869;52.238;10.716;2023-05-29T12:28:55;8.77;;;2.77;;
21416;SDS011;10869;52.238;10.716;2023-05-29T12:31:27;9.87;;;2.80;;
21416;SDS011;10869;52.238;10.716;2023-05-29T12:33:59;7.57;;;2.63;;
21416;SDS011;10869;52.238;10.716;2023-05-29T12:36:26;7.23;;;2.90;;
21416;SDS011;10869;52.238;10.716;2023-05-29T12:38:52;7.73;;;2.60;;
21416;SDS011;10869;52.238;10.716;2023-05-29T12:43:56;8.03;;;2.80;;
21416;SDS011;10869;52.238;10.716;2023-05-29T12:46:27;7.60;;;2.77;;
21416;SDS011;10869;52.238;10.716;2023-05-29T12:49:10;7.90;;;2.83;;
21416;SDS011;10869;52.238;10.716;2023-05-29T12:51:41;7.90;;;2.50;;
21416;SDS011;10869;52.238;10.716;2023-05-29T12:54:10;8.77;;;2.70;;
21416;SDS011;10869;52.238;10.716;2023-05-29T12:56:37;9.40;;;2.47;;
21416;SDS011;10869;52.238;10.716;2023-05-29T12:59:07;8.47;;;2.67;;
21416;SDS011;10869;52.238;10.716;2023-05-29T13:01:36;9.77;;;2.73;;
21416;SDS011;10869;52.238;10.716;2023-05-29T13:04:09;8.60;;;2.43;;
21416;SDS011;10869;52.238;10.716;2023-05-29T13:06:37;9.13;;;2.40;;
21416;SDS011;10869;52.238;10.716;2023-05-29T13:09:03;10.90;;;2.97;;
21416;SDS011;10869;52.238;10.716;2023-05-29T13:11:33;9.00;;;2.77;;
21416;SDS011;10869;52.238;10.716;2023-05-29T13:14:02;9.97;;;2.80;;
21416;SDS011;10869;52.238;10.716;2023-05-29T13:17:00;9.37;;;2.30;;
21416;SDS011;10869;52.238;10.716;2023-05-29T13:19:46;11.63;;;2.73;;
21416;SDS011;10869;52.238;10.716;2023-05-29T13:22:11;9.60;;;2.63;;
21416;SDS011;10869;52.238;10.716;2023-05-29T13:24:37;9.67;;;2.90;;
21416;SDS011;10869;52.238;10.716;2023-05-29T13:27:03;10.33;;;2.77;;
21416;SDS011;10869;52.238;10.716;2023-05-29T13:29:30;6.40;;;2.77;;
21416;SDS011;10869;52.238;10.716;2023-05-29T13:31:56;14.73;;;3.77;;
21416;SDS011;10869;52.238;10.716;2023-05-29T13:37:44;5.47;;;2.40;;
21416;SDS011;10869;52.238;10.716;2023-05-29T13:40:10;7.87;;;2.20;;
21416;SDS011;10869;52.238;10.716;2023-05-29T13:42:38;7.37;;;2.40;;
21416;SDS011;10869;52.238;10.716;2023-05-29T13:45:05;7.47;;;2.43;;
21416;SDS011;10869;52.238;10.716;2023-05-29T13:47:32;6.83;;;2.40;;
21416;SDS011;10869;52.238;10.716;2023-05-29T13:49:58;8.83;;;2.63;;
21416;SDS011;10869;52.238;10.716;2023-05-29T13:52:25;7.17;;;2.60;;
21416;SDS011;10869;52.238;10.716;2023-05-29T13:54:51;9.67;;;2.87;;
21416;SDS011;10869;52.238;10.716;2023-05-29T13:57:17;10.13;;;2.73;;
21416;SDS011;10869;52.238;10.716;2023-05-29T13:59:43;8.80;;;2.73;;
21416;SDS011;10869;52.238;10.716;2023-05-29T14:02:08;6.83;;;2.47;;
21416;SDS011;10869;52.238;10.716;2023-05-29T14:04:36;9.30;;;2.50;;
21416;SDS011;10869;52.238;10.716;2023-05-29T14:07:03;8.23;;;2.30;;
21416;SDS011;10869;52.238;10.716;2023-05-29T14:09:30;8.00;;;2.70;;
21416;SDS011;10869;52.238;10.716;2023-05-29T14:11:57;7.23;;;2.40;;
21416;SDS011;10869;52.238;10.716;2023-05-29T14:14:24;8.27;;;2.13;;
21416;SDS011;10869;52.238;10.716;2023-05-29T14:16:51;6.80;;;2.43;;
21416;SDS011;10869;52.238;10.716;2023-05-29T14:19:17;8.23;;;2.63;;
21416;SDS011;10869;52.238;10.716;2023-05-29T14:21:44;9.23;;;3.10;;
21416;SDS011;10869;52.238;10.716;2023-05-29T14:24:10;7.57;;;2.40;;
21416;SDS011;10869;52.238;10.716;2023-05-29T14:26:39;7.77;;;2.60;;
21416;SDS011;10869;52.238;10.716;2023-05-29T14:29:06;6.93;;;2.37;;
21416;SDS011;10869;52.238;10.716;2023-05-29T14:31:32;7.50;;;2.30;;
21416;SDS011;10869;52.238;10.716;2023-05-29T14:33:58;8.33;;;2.27;;
21416;SDS011;10869;52.238;10.716;2023-05-29T14:36:23;7.10;;;2.67;;
21416;SDS011;10869;52.238;10.716;2023-05-29T14:38:49;9.97;;;3.20;;
21416;SDS011;10869;52.238;10.716;2023-05-29T14:41:15;7.47;;;2.40;;
21416;SDS011;10869;52.238;10.716;2023-05-29T14:43:41;7.83;;;2.60;;
21416;SDS011;10869;52.238;10.716;2023-05-29T14:46:08;6.70;;;2.30;;
21416;SDS011;10869;52.238;10.716;2023-05-29T14:48:37;8.60;;;2.83;;
21416;SDS011;10869;52.238;10.716;2023-05-29T14:51:09;8.47;;;2.40;;
21416;SDS011;10869;52.238;10.716;2023-05-29T14:53:35;7.43;;;2.60;;
21416;SDS011;10869;52.238;10.716;2023-05-29T14:56:01;9.80;;;2.90;;
21416;SDS011;10869;52.238;10.716;2023-05-29T14:58:27;7.30;;;2.50;;
21416;SDS011;10869;52.238;10.716;2023-05-29T15:00:53;8.13;;;2.87;;
21416;SDS011;10869;52.238;10.716;2023-05-29T15:03:19;7.43;;;2.47;;
21416;SDS011;10869;52.238;10.716;2023-05-29T15:05:45;6.97;;;2.20;;
21416;SDS011;10869;52.238;10.716;2023-05-29T15:08:11;6.20;;;2.23;;
21416;SDS011;10869;52.238;10.716;2023-05-29T15:10:37;7.90;;;2.60;;
21416;SDS011;10869;52.238;10.716;2023-05-29T15:13:02;7.63;;;2.43;;
21416;SDS011;10869;52.238;10.716;2023-05-29T15:15:31;7.20;;;2.60;;
21416;SDS011;10869;52.238;10.716;2023-05-29T15:17:57;8.80;;;2.53;;
21416;SDS011;10869;52.238;10.716;2023-05-29T15:20:24;6.93;;;2.33;;
21416;SDS011;10869;52.238;10.716;2023-05-29T15:22:51;10.20;;;2.60;;
21416;SDS011;10869;52.238;10.716;2023-05-29T15:25:18;8.10;;;2.80;;
21416;SDS011;10869;52.238;10.716;2023-05-29T15:27:45;7.50;;;2.67;;
21416;SDS011;10869;52.238;10.716;2023-05-29T15:30:12;8.07;;;2.83;;
21416;SDS011;10869;52.238;10.716;2023-05-29T15:32:39;13.87;;;3.20;;
21416;SDS011;10869;52.238;10.716;2023-05-29T15:35:10;9.93;;;2.67;;
21416;SDS011;10869;52.238;10.716;2023-05-29T15:37:37;8.33;;;2.53;;
21416;SDS011;10869;52.238;10.716;2023-05-29T15:40:03;8.67;;;2.33;;
21416;SDS011;10869;52.238;10.716;2023-05-29T15:42:30;7.47;;;2.50;;
21416;SDS011;10869;52.238;10.716;2023-05-29T15:44:56;9.63;;;3.00;;
21416;SDS011;10869;52.238;10.716;2023-05-29T15:47:22;6.67;;;2.43;;
21416;SDS011;10869;52.238;10.716;2023-05-29T15:49:48;7.93;;;2.60;;
21416;SDS011;10869;52.238;10.716;2023-05-29T15:55:43;9.30;;;2.43;;
21416;SDS011;10869;52.238;10.716;2023-05-29T15:58:24;10.23;;;2.60;;
21416;SDS011;10869;52.238;10.716;2023-05-29T16:00:49;9.37;;;2.93;;
21416;SDS011;10869;52.238;10.716;2023-05-29T16:03:15;6.20;;;2.23;;
21416;SDS011;10869;52.238;10.716;2023-05-29T16:05:41;8.30;;;2.50;;
21416;SDS011;10869;52.238;10.716;2023-05-29T16:08:07;6.90;;;1.80;;
21416;SDS011;10869;52.238;10.716;2023-05-29T16:14:20;8.60;;;2.30;;
21416;SDS011;10869;52.238;10.716;2023-05-29T16:16:46;9.43;;;2.30;;
21416;SDS011;10869;52.238;10.716;2023-05-29T16:22:34;8.00;;;1.97;;
21416;SDS011;10869;52.238;10.716;2023-05-29T16:28:23;7.63;;;2.20;;
21416;SDS011;10869;52.238;10.716;2023-05-29T16:30:48;7.83;;;2.20;;
21416;SDS011;10869;52.238;10.716;2023-05-29T16:33:14;9.43;;;2.97;;
21416;SDS011;10869;52.238;10.716;2023-05-29T16:35:40;8.87;;;2.17;;
21416;SDS011;10869;52.238;10.716;2023-05-29T16:38:06;7.17;;;2.27;;
21416;SDS011;10869;52.238;10.716;2023-05-29T16:40:31;8.43;;;2.50;;
21416;SDS011;10869;52.238;10.716;2023-05-29T16:42:57;8.37;;;2.23;;
21416;SDS011;10869;52.238;10.716;2023-05-29T16:45:23;10.10;;;2.87;;
21416;SDS011;10869;52.238;10.716;2023-05-29T16:47:49;9.53;;;2.40;;
21416;SDS011;10869;52.238;10.716;2023-05-29T16:50:17;7.87;;;2.43;;
21416;SDS011;10869;52.238;10.716;2023-05-29T16:52:43;8.93;;;2.33;;
21416;SDS011;10869;52.238;10.716;2023-05-29T16:55:08;10.67;;;4.23;;
21416;SDS011;10869;52.238;10.716;2023-05-29T16:57:40;7.77;;;2.23;;
21416;SDS011;10869;52.238;10.716;2023-05-29T17:00:08;7.97;;;2.50;;
21416;SDS011;10869;52.238;10.716;2023-05-29T17:05:21;9.97;;;2.60;;
21416;SDS011;10869;52.238;10.716;2023-05-29T17:11:09;8.53;;;2.63;;
21416;SDS011;10869;52.238;10.716;2023-05-29T17:13:38;9.00;;;2.77;;
21416;SDS011;10869;52.238;10.716;2023-05-29T17:47:55;7.57;;;2.60;;
21416;SDS011;10869;52.238;10.716;2023-05-29T17:50:21;8.07;;;2.10;;
21416;SDS011;10869;52.238;10.716;2023-05-29T17:56:09;9.60;;;2.50;;
21416;SDS011;10869;52.238;10.716;2023-05-29T18:01:58;10.53;;;2.50;;
21416;SDS011;10869;52.238;10.716;2023-05-29T18:07:46;7.03;;;2.13;;
21416;SDS011;10869;52.238;10.716;2023-05-29T18:13:34;9.87;;;2.77;;
21416;SDS011;10869;52.238;10.716;2023-05-29T18:19:22;7.37;;;2.13;;
21416;SDS011;10869;52.238;10.716;2023-05-29T18:29:39;8.80;;;2.63;;
21416;SDS011;10869;52.238;10.716;2023-05-29T18:35:35;11.97;;;3.00;;
21416;SDS011;10869;52.238;10.716;2023-05-29T18:38:01;8.03;;;2.60;;
21416;SDS011;10869;52.238;10.716;2023-05-29T18:40:26;14.13;;;5.70;;
21416;SDS011;10869;52.238;10.716;2023-05-29T18:42:52;12.67;;;5.20;;
21416;SDS011;10869;52.238;10.716;2023-05-29T18:48:40;9.93;;;3.40;;
21416;SDS011;10869;52.238;10.716;2023-05-29T18:54:28;9.63;;;2.87;;
21416;SDS011;10869;52.238;10.716;2023-05-29T18:56:54;8.53;;;3.00;;
21416;SDS011;10869;52.238;10.716;2023-05-29T18:59:23;12.80;;;3.20;;
21416;SDS011;10869;52.238;10.716;2023-05-29T19:01:49;7.90;;;2.70;;
21416;SDS011;10869;52.238;10.716;2023-05-29T19:09:32;9.07;;;2.67;;
21416;SDS011;10869;52.238;10.716;2023-05-29T19:11:57;9.50;;;2.17;;
21416;SDS011;10869;52.238;10.716;2023-05-29T19:14:23;11.60;;;2.50;;
21416;SDS011;10869;52.238;10.716;2023-05-29T19:20:11;9.80;;;2.73;;
21416;SDS011;10869;52.238;10.716;2023-05-29T19:22:37;12.37;;;2.50;;
21416;SDS011;10869;52.238;10.716;2023-05-29T19:28:25;8.20;;;2.77;;
21416;SDS011;10869;52.238;10.716;2023-05-29T19:30:51;11.33;;;2.80;;
21416;SDS011;10869;52.238;10.716;2023-05-29T19:36:38;9.27;;;2.33;;
21416;SDS011;10869;52.238;10.716;2023-05-29T19:39:04;10.70;;;2.60;;
21416;SDS011;10869;52.238;10.716;2023-05-29T19:41:32;9.67;;;3.03;;
21416;SDS011;10869;52.238;10.716;2023-05-29T19:43:58;10.80;;;2.30;;
21416;SDS011;10869;52.238;10.716;2023-05-29T19:49:51;13.27;;;3.13;;
21416;SDS011;10869;52.238;10.716;2023-05-29T19:52:16;11.27;;;3.00;;
21416;SDS011;10869;52.238;10.716;2023-05-29T19:54:43;16.40;;;3.07;;
21416;SDS011;10869;52.238;10.716;2023-05-29T19:57:10;8.00;;;2.43;;
21416;SDS011;10869;52.238;10.716;2023-05-29T19:59:36;11.93;;;2.73;;
21416;SDS011;10869;52.238;10.716;2023-05-29T20:05:24;10.97;;;2.70;;
21416;SDS011;10869;52.238;10.716;2023-05-29T20:07:50;8.20;;;2.37;;
21416;SDS011;10869;52.238;10.716;2023-05-29T20:10:16;11.70;;;2.70;;
21416;SDS011;10869;52.238;10.716;2023-05-29T20:12:41;13.20;;;2.93;;
21416;SDS011;10869;52.238;10.716;2023-05-29T20:15:10;10.93;;;2.83;;
21416;SDS011;10869;52.238;10.716;2023-05-29T20:17:37;11.57;;;2.87;;
21416;SDS011;10869;52.238;10.716;2023-05-29T20:20:04;11.50;;;3.20;;
21416;SDS011;10869;52.238;10.716;2023-05-29T21:03:57;12.03;;;2.87;;
21416;SDS011;10869;52.238;10.716;2023-05-29T21:06:22;7.17;;;2.90;;
21416;SDS011;10869;52.238;10.716;2023-05-29T21:08:48;8.77;;;2.90;;
21416;SDS011;10869;52.238;10.716;2023-05-29T21:11:14;10.80;;;2.83;;
21416;SDS011;10869;52.238;10.716;2023-05-29T21:13:41;10.03;;;2.87;;
21416;SDS011;10869;52.238;10.716;2023-05-29T21:16:06;9.90;;;3.00;;
21416;SDS011;10869;52.238;10.716;2023-05-29T21:18:32;8.40;;;2.10;;
21416;SDS011;10869;52.238;10.716;2023-05-29T21:20:58;9.40;;;2.73;;
21416;SDS011;10869;52.238;10.716;2023-05-29T21:23:24;10.03;;;3.00;;
21416;SDS011;10869;52.238;10.716;2023-05-29T21:25:52;13.70;;;3.13;;
21416;SDS011;10869;52.238;10.716;2023-05-29T21:28:18;10.00;;;3.13;;
21416;SDS011;10869;52.238;10.716;2023-05-29T21:30:44;15.70;;;3.53;;
21416;SDS011;10869;52.238;10.716;2023-05-29T21:33:09;13.70;;;2.73;;
21416;SDS011;10869;52.238;10.716;2023-05-29T21:35:35;12.27;;;2.90;;
21416;SDS011;10869;52.238;10.716;2023-05-29T21:38:02;14.27;;;3.53;;
21416;SDS011;10869;52.238;10.716;2023-05-29T21:40:27;14.03;;;3.03;;
21416;SDS011;10869;52.238;10.716;2023-05-29T21:42:53;12.90;;;3.43;;
21416;SDS011;10869;52.238;10.716;2023-05-29T21:45:21;16.50;;;3.27;;
21416;SDS011;10869;52.238;10.716;2023-05-29T21:47:48;12.03;;;3.03;;
21416;SDS011;10869;52.238;10.716;2023-05-29T21:50:14;13.63;;;3.67;;
21416;SDS011;10869;52.238;10.716;2023-05-29T21:52:41;13.00;;;3.77;;
21416;SDS011;10869;52.238;10.716;2023-05-29T21:55:07;10.90;;;3.30;;
21416;SDS011;10869;52.238;10.716;2023-05-29T21:57:33;13.50;;;4.03;;
21416;SDS011;10869;52.238;10.716;2023-05-29T21:59:59;11.90;;;3.23;;
21416;SDS011;10869;52.238;10.716;2023-05-29T22:02:25;14.43;;;2.80;;
21416;SDS011;10869;52.238;10.716;2023-05-29T22:04:51;13.93;;;3.37;;
21416;SDS011;10869;52.238;10.716;2023-05-29T22:07:16;14.20;;;3.50;;
21416;SDS011;10869;52.238;10.716;2023-05-29T22:09:42;10.77;;;2.90;;